Time;durP1;ratioP1;P1;durP2;ratioP2;P2;SDS_P1;SDS_P2;PMS_P1;PMS_P2;Temp;Humidity;BMP_temperature;BMP_pressure;BME280_temperature;BME280_humidity;BME280_pressure;Samples;Min_cycle;Max_cycle;Signal;HPM_P1;HPM_P2
2022/07/23 00:01:23;;;;;;;5.07;2.97;;;16.20;99.90;;;;;;5086324;28;20663;-64
2022/07/23 00:03:49;;;;;;;6.95;3.40;;;16.20;99.90;;;;;;5082582;28;20131;-64
2022/07/23 00:06:15;;;;;;;5.82;2.70;;;16.10;99.90;;;;;;5081944;28;20552;-65
2022/07/23 00:08:41;;;;;;;6.53;3.33;;;16.10;99.90;;;;;;5078786;28;20295;-65
2022/07/23 00:11:07;;;;;;;4.30;2.92;;;16.10;99.90;;;;;;5080775;28;20035;-63
2022/07/23 00:13:33;;;;;;;6.63;3.10;;;16.00;99.90;;;;;;5082241;28;20043;-63
2022/07/23 00:15:58;;;;;;;6.50;2.90;;;16.00;99.90;;;;;;5082868;28;20028;-62
2022/07/23 00:18:24;;;;;;;7.38;3.13;;;15.90;99.90;;;;;;5081707;28;20032;-63
2022/07/23 00:20:50;;;;;;;7.10;3.40;;;15.90;99.90;;;;;;5083001;28;20352;-63
2022/07/23 00:23:16;;;;;;;6.05;2.80;;;15.90;99.90;;;;;;5064788;28;20051;-62
2022/07/23 00:25:42;;;;;;;5.03;2.92;;;15.90;99.90;;;;;;5063167;28;20110;-63
2022/07/23 00:28:08;;;;;;;5.80;2.97;;;15.90;99.90;;;;;;5082102;28;20032;-63
2022/07/23 00:30:34;;;;;;;6.90;3.20;;;15.80;99.90;;;;;;5083905;28;20336;-64
2022/07/23 00:33:02;;;;;;;7.63;3.45;;;15.80;99.90;;;;;;5084101;28;20093;-63
2022/07/23 00:35:31;;;;;;;6.50;2.85;;;15.80;99.90;;;;;;5081027;28;20115;-63
2022/07/23 00:37:58;;;;;;;5.32;3.17;;;15.80;99.90;;;;;;5081779;28;20406;-63
2022/07/23 00:40:24;;;;;;;4.95;3.30;;;15.80;99.90;;;;;;5081614;28;20040;-64
2022/07/23 00:42:50;;;;;;;5.97;3.35;;;15.80;99.90;;;;;;5084539;28;20093;-63
2022/07/23 00:45:16;;;;;;;7.25;3.70;;;15.70;99.90;;;;;;5082686;28;20035;-63
2022/07/23 00:47:42;;;;;;;6.10;3.30;;;15.70;99.90;;;;;;5063652;28;20040;-65
2022/07/23 00:50:08;;;;;;;7.47;3.28;;;15.70;99.90;;;;;;5079264;28;20035;-64
2022/07/23 00:52:36;;;;;;;4.82;3.40;;;15.70;99.90;;;;;;5083460;28;20108;-63
2022/07/23 00:55:03;;;;;;;5.38;3.15;;;15.70;99.90;;;;;;5081825;28;20158;-63
2022/07/23 00:57:29;;;;;;;4.85;3.22;;;15.60;99.90;;;;;;5080847;28;20044;-63
2022/07/23 00:59:56;;;;;;;7.10;3.33;;;15.60;99.90;;;;;;5082164;28;20048;-63
2022/07/23 01:02:21;;;;;;;4.43;3.20;;;15.60;99.90;;;;;;5084756;28;20078;-63
2022/07/23 01:04:47;;;;;;;6.40;3.38;;;15.60;99.90;;;;;;5080195;28;20482;-63
2022/07/23 01:07:13;;;;;;;8.05;3.60;;;15.50;99.90;;;;;;5080705;28;20036;-63
2022/07/23 01:09:39;;;;;;;7.13;3.58;;;15.50;99.90;;;;;;5061990;28;20115;-64
2022/07/23 01:12:06;;;;;;;5.00;3.58;;;15.50;99.90;;;;;;5064679;28;20480;-63
2022/07/23 01:14:32;;;;;;;7.95;3.80;;;15.50;99.90;;;;;;5081774;28;20119;-63
2022/07/23 01:16:57;;;;;;;5.85;3.47;;;15.50;99.90;;;;;;5080746;28;20115;-63
2022/07/23 01:19:23;;;;;;;8.85;3.45;;;15.40;99.90;;;;;;5080289;28;20036;-63
2022/07/23 01:21:51;;;;;;;6.10;3.45;;;15.40;99.90;;;;;;5082149;28;20049;-63
2022/07/23 01:24:21;;;;;;;6.93;3.80;;;15.40;99.90;;;;;;5080635;28;20542;-63
2022/07/23 01:26:48;;;;;;;4.50;3.15;;;15.40;99.90;;;;;;5080824;28;20044;-63
2022/07/23 01:29:14;;;;;;;4.95;3.13;;;15.40;99.90;;;;;;5081780;28;20453;-63
2022/07/23 01:31:41;;;;;;;6.00;3.03;;;15.40;99.90;;;;;;5082598;28;20041;-64
2022/07/23 01:34:07;;;;;;;4.28;2.80;;;15.40;99.90;;;;;;5079410;28;20097;-63
2022/07/23 01:36:37;;;;;;;5.38;3.42;;;15.30;99.90;;;;;;5080851;28;20052;-63
2022/07/23 01:39:04;;;;;;;5.45;3.47;;;15.30;99.90;;;;;;5079068;28;20453;-62
2022/07/23 01:41:30;;;;;;;8.55;4.30;;;15.30;99.90;;;;;;5081949;28;20123;-62
2022/07/23 01:43:56;;;;;;;4.28;3.00;;;15.20;99.90;;;;;;5081713;28;20111;-63
2022/07/23 01:46:22;;;;;;;7.00;3.65;;;15.30;99.90;;;;;;5080812;28;20045;-63
2022/07/23 01:48:48;;;;;;;6.65;3.60;;;15.20;99.90;;;;;;5079444;28;20381;-63
2022/07/23 01:51:14;;;;;;;5.07;3.42;;;15.20;99.90;;;;;;5082272;28;20024;-63
2022/07/23 01:53:40;;;;;;;7.68;3.72;;;15.30;99.90;;;;;;5078070;28;20516;-63
2022/07/23 01:56:06;;;;;;;6.15;3.70;;;15.20;99.90;;;;;;5081943;28;20065;-63
2022/07/23 01:58:32;;;;;;;10.43;4.97;;;15.20;99.90;;;;;;5081432;28;20040;-63
2022/07/23 02:00:58;;;;;;;7.00;3.55;;;15.20;99.90;;;;;;5081482;28;20043;-63
2022/07/23 02:03:24;;;;;;;7.45;3.40;;;15.20;99.90;;;;;;5081820;28;20089;-63
2022/07/23 02:05:50;;;;;;;7.95;3.33;;;15.20;99.90;;;;;;5081848;28;20504;-63
2022/07/23 02:08:17;;;;;;;6.90;3.30;;;15.20;99.90;;;;;;5059733;28;20040;-63
2022/07/23 02:10:43;;;;;;;4.68;3.10;;;15.30;99.90;;;;;;5080388;28;20041;-63
2022/07/23 02:13:09;;;;;;;5.65;3.17;;;15.30;99.90;;;;;;5082828;28;20120;-63
2022/07/23 02:15:34;;;;;;;6.00;3.60;;;15.30;99.90;;;;;;5079317;28;20185;-63
2022/07/23 02:18:00;;;;;;;7.50;3.72;;;15.30;99.90;;;;;;5077976;28;20045;-63
2022/07/23 02:20:26;;;;;;;8.65;3.83;;;15.30;99.90;;;;;;5062493;28;20036;-63
2022/07/23 02:22:52;;;;;;;6.20;3.15;;;15.30;99.90;;;;;;5079894;28;20052;-63
2022/07/23 02:25:18;;;;;;;5.93;2.95;;;15.30;99.90;;;;;;5081432;28;20045;-63
2022/07/23 02:27:43;;;;;;;4.68;3.10;;;15.30;99.90;;;;;;5080768;28;20472;-63
2022/07/23 02:30:10;;;;;;;6.85;3.00;;;15.30;99.90;;;;;;5080466;28;20403;-63
2022/07/23 02:32:36;;;;;;;6.20;3.10;;;15.20;99.90;;;;;;5083364;28;20483;-63
2022/07/23 02:35:02;;;;;;;4.93;3.03;;;15.20;99.90;;;;;;5078247;28;20085;-64
2022/07/23 02:37:28;;;;;;;5.75;3.65;;;15.10;99.90;;;;;;5079408;28;20040;-63
2022/07/23 02:39:54;;;;;;;5.38;3.20;;;15.10;99.90;;;;;;5062708;28;20101;-63
2022/07/23 02:42:20;;;;;;;4.65;2.90;;;15.00;99.90;;;;;;5081260;28;20041;-62
2022/07/23 02:44:45;;;;;;;6.10;3.13;;;15.00;99.90;;;;;;5080535;28;20048;-63
2022/07/23 02:47:11;;;;;;;7.82;3.70;;;15.00;99.90;;;;;;5063851;28;20044;-64
2022/07/23 02:49:37;;;;;;;5.60;3.10;;;15.00;99.90;;;;;;5077150;28;20369;-63
2022/07/23 02:52:03;;;;;;;6.25;3.35;;;14.90;99.90;;;;;;5080559;28;20119;-63
2022/07/23 02:54:29;;;;;;;4.10;3.20;;;14.90;99.90;;;;;;5081419;28;20372;-63
2022/07/23 02:56:54;;;;;;;5.22;3.10;;;14.80;99.90;;;;;;5078636;28;20040;-63
2022/07/23 02:59:20;;;;;;;7.32;3.55;;;14.80;99.90;;;;;;5078761;28;20044;-63
2022/07/23 03:01:46;;;;;;;6.57;3.38;;;14.70;99.90;;;;;;5067856;28;20111;-63
2022/07/23 03:04:12;;;;;;;4.63;3.35;;;14.80;99.90;;;;;;5083473;28;20066;-63
2022/07/23 03:06:38;;;;;;;7.07;3.83;;;14.70;99.90;;;;;;5085378;28;20028;-63
2022/07/23 03:09:05;;;;;;;5.40;4.00;;;14.60;99.90;;;;;;5081062;28;20090;-64
2022/07/23 03:11:31;;;;;;;6.10;4.30;;;14.70;99.90;;;;;;5065327;28;20110;-63
2022/07/23 03:13:56;;;;;;;7.45;4.22;;;14.60;99.90;;;;;;5084009;28;20510;-63
2022/07/23 03:16:22;;;;;;;6.32;4.32;;;14.60;99.90;;;;;;5082927;28;20036;-63
2022/07/23 03:18:48;;;;;;;5.20;3.72;;;14.60;99.90;;;;;;5082004;28;20036;-62
2022/07/23 03:21:14;;;;;;;5.57;4.13;;;14.50;99.90;;;;;;5085385;28;20036;-62
2022/07/23 03:23:40;;;;;;;6.00;4.22;;;14.50;99.90;;;;;;5083198;28;20035;-63
2022/07/23 03:26:06;;;;;;;7.85;4.28;;;14.50;99.90;;;;;;5083479;28;20048;-63
2022/07/23 03:28:31;;;;;;;8.25;4.30;;;14.50;99.90;;;;;;5083998;28;20044;-64
2022/07/23 03:30:58;;;;;;;9.35;4.68;;;14.50;99.90;;;;;;5065794;28;20075;-64
2022/07/23 03:33:23;;;;;;;8.48;5.07;;;14.50;99.90;;;;;;5082143;28;20350;-64
2022/07/23 03:35:49;;;;;;;10.60;5.30;;;14.40;99.90;;;;;;5084349;28;20052;-63
2022/07/23 03:38:15;;;;;;;6.32;5.00;;;14.50;99.90;;;;;;5080478;28;20445;-63
2022/07/23 03:40:41;;;;;;;8.10;4.72;;;14.50;99.90;;;;;;5080703;28;20043;-63
2022/07/23 03:43:07;;;;;;;7.88;5.15;;;14.50;99.90;;;;;;5066065;28;20055;-63
2022/07/23 03:45:33;;;;;;;6.40;4.40;;;14.40;99.90;;;;;;5082414;28;20169;-63
2022/07/23 03:47:59;;;;;;;7.63;5.38;;;14.50;99.90;;;;;;5084421;28;20154;-64
2022/07/23 03:50:25;;;;;;;8.07;5.40;;;14.40;99.90;;;;;;5080466;28;20485;-63
2022/07/23 03:52:51;;;;;;;7.28;5.05;;;14.30;99.90;;;;;;5083753;28;20039;-66
2022/07/23 03:55:17;;;;;;;6.80;4.57;;;14.40;99.90;;;;;;5083370;28;20074;-64
2022/07/23 03:57:43;;;;;;;5.75;4.40;;;14.30;99.90;;;;;;5082275;28;20042;-64
2022/07/23 04:00:10;;;;;;;8.20;5.05;;;14.30;99.90;;;;;;5082041;28;20467;-64
2022/07/23 04:02:38;;;;;;;7.97;5.55;;;14.30;99.90;;;;;;5084502;28;20052;-64
2022/07/23 04:05:04;;;;;;;7.15;4.68;;;14.30;99.90;;;;;;5082897;28;20127;-63
2022/07/23 04:07:30;;;;;;;6.68;4.80;;;14.20;99.90;;;;;;5082657;28;20029;-64
2022/07/23 04:09:56;;;;;;;7.75;4.57;;;14.20;99.90;;;;;;5081323;28;20039;-64
2022/07/23 04:12:21;;;;;;;8.88;5.20;;;14.20;99.90;;;;;;5081121;28;20091;-64
2022/07/23 04:14:47;;;;;;;9.05;4.65;;;14.20;99.90;;;;;;5082446;28;20382;-64
2022/07/23 04:17:13;;;;;;;9.05;4.82;;;14.20;99.90;;;;;;5083952;28;20174;-64
2022/07/23 04:19:43;;;;;;;9.50;4.85;;;14.20;99.90;;;;;;5079569;28;20571;-64
2022/07/23 04:22:10;;;;;;;9.23;5.22;;;14.20;99.90;;;;;;5081312;28;20119;-64
2022/07/23 04:24:37;;;;;;;7.80;4.85;;;14.20;99.90;;;;;;5083052;28;20063;-64
2022/07/23 04:27:03;;;;;;;7.60;5.15;;;14.20;99.90;;;;;;5082079;28;20134;-63
2022/07/23 04:29:29;;;;;;;9.32;5.18;;;14.30;99.90;;;;;;5082316;28;20059;-65
2022/07/23 04:31:55;;;;;;;7.50;4.55;;;14.30;99.90;;;;;;5065983;28;20063;-63
2022/07/23 04:34:21;;;;;;;7.30;4.65;;;14.30;99.90;;;;;;5079700;28;20153;-64
2022/07/23 04:36:47;;;;;;;6.93;4.15;;;14.40;99.90;;;;;;5082441;28;20037;-64
2022/07/23 04:39:13;;;;;;;6.07;4.45;;;14.40;99.90;;;;;;5081562;28;20416;-63
2022/07/23 04:41:39;;;;;;;7.03;4.38;;;14.40;99.90;;;;;;5062666;28;20044;-63
2022/07/23 04:44:04;;;;;;;8.02;4.50;;;14.50;99.90;;;;;;5082417;28;20522;-64
2022/07/23 04:46:30;;;;;;;8.50;4.35;;;14.50;99.90;;;;;;5083248;28;20058;-63
2022/07/23 04:48:56;;;;;;;7.15;4.03;;;14.60;99.90;;;;;;5063527;28;20463;-63
2022/07/23 04:51:21;;;;;;;8.77;3.72;;;14.60;99.90;;;;;;5081901;28;20326;-65
2022/07/23 04:53:47;;;;;;;9.30;4.28;;;14.70;99.90;;;;;;5081455;28;20516;-64
2022/07/23 04:56:13;;;;;;;7.15;4.13;;;14.90;99.90;;;;;;5080457;28;20032;-64
2022/07/23 04:58:38;;;;;;;10.13;3.90;;;15.40;99.90;;;;;;5064425;28;20040;-63
2022/07/23 05:01:04;;;;;;;8.27;4.57;;;15.90;99.90;;;;;;5081679;28;20373;-64
2022/07/23 05:03:30;;;;;;;7.85;4.25;;;16.50;99.90;;;;;;5081872;28;20040;-64
2022/07/23 05:05:55;;;;;;;7.22;3.75;;;17.30;99.90;;;;;;5082972;28;20036;-64
2022/07/23 05:08:21;;;;;;;6.57;3.80;;;17.90;99.90;;;;;;5078768;28;20727;-64
2022/07/23 05:10:47;;;;;;;6.65;3.58;;;18.60;99.90;;;;;;5080573;28;20433;-64
2022/07/23 05:13:15;;;;;;;11.90;4.22;;;19.30;99.90;;;;;;5045390;28;20335;-64
2022/07/23 05:15:42;;;;;;;6.65;3.75;;;19.70;99.90;;;;;;5079870;28;20036;-64
2022/07/23 05:18:07;;;;;;;7.40;3.70;;;20.10;99.90;;;;;;5081228;28;20097;-64
2022/07/23 05:20:33;;;;;;;6.32;3.20;;;20.70;99.90;;;;;;5081080;28;20048;-64
2022/07/23 05:22:59;;;;;;;5.22;3.15;;;21.10;99.90;;;;;;5077922;28;20680;-65
2022/07/23 05:25:24;;;;;;;4.80;2.53;;;21.60;99.90;;;;;;5081560;28;20082;-65
2022/07/23 05:27:50;;;;;;;5.85;3.20;;;21.90;99.90;;;;;;5064284;28;20610;-65
2022/07/23 05:30:16;;;;;;;6.15;3.33;;;22.30;99.90;;;;;;5080157;28;20055;-65
2022/07/23 05:32:41;;;;;;;5.25;3.10;;;22.60;99.90;;;;;;5082465;28;20032;-65
2022/07/23 05:35:07;;;;;;;5.43;3.20;;;22.80;99.90;;;;;;5079389;28;20044;-65
2022/07/23 05:37:33;;;;;;;5.50;3.15;;;23.20;99.90;;;;;;5078887;28;20469;-65
2022/07/23 05:40:07;;;;;;;5.22;2.70;;;23.40;99.90;;;;;;5081101;28;20044;-65
2022/07/23 05:42:40;;;;;;;5.85;2.90;;;23.50;99.90;;;;;;5082094;28;20361;-65
2022/07/23 05:45:07;;;;;;;8.65;2.85;;;23.60;99.90;;;;;;5080767;28;20047;-65
2022/07/23 05:47:43;;;;;;;7.88;2.55;;;23.40;99.90;;;;;;5081066;28;20047;-64
2022/07/23 05:50:10;;;;;;;5.32;2.83;;;23.60;99.90;;;;;;5077374;28;20070;-65
2022/07/23 05:52:35;;;;;;;7.68;2.40;;;23.30;99.90;;;;;;5082347;28;20036;-65
2022/07/23 05:55:01;;;;;;;3.65;2.40;;;22.90;99.90;;;;;;5080921;28;20040;-65
2022/07/23 05:57:27;;;;;;;4.25;2.45;;;22.80;99.90;;;;;;5080311;28;20448;-65
2022/07/23 05:59:52;;;;;;;3.83;2.28;;;22.90;99.90;;;;;;5080847;28;20453;-66
2022/07/23 06:02:18;;;;;;;5.80;2.80;;;23.10;99.90;;;;;;5082395;28;20483;-64
2022/07/23 06:04:44;;;;;;;4.68;2.50;;;23.20;99.90;;;;;;5079801;28;20040;-65
2022/07/23 06:07:09;;;;;;;9.23;2.75;;;23.00;99.90;;;;;;5079603;28;20032;-65
2022/07/23 06:09:35;;;;;;;6.05;2.30;;;23.00;99.90;;;;;;5079583;28;20040;-65
2022/07/23 06:12:00;;;;;;;4.22;2.28;;;23.20;99.90;;;;;;5072705;28;20032;-65
2022/07/23 06:14:26;;;;;;;4.72;2.30;;;23.40;99.90;;;;;;5070741;28;20123;-65
2022/07/23 06:16:52;;;;;;;6.70;2.72;;;23.80;99.90;;;;;;5070783;28;20036;-65
2022/07/23 06:19:18;;;;;;;3.55;2.40;;;24.00;99.90;;;;;;5070402;28;20116;-64
2022/07/23 06:21:43;;;;;;;3.80;1.70;;;24.20;99.90;;;;;;5053863;28;20101;-65
2022/07/23 06:24:09;;;;;;;3.95;1.77;;;24.20;99.90;;;;;;5070939;28;20736;-64
2022/07/23 06:26:34;;;;;;;3.17;1.60;;;24.40;99.90;;;;;;5070638;28;20430;-64
2022/07/23 06:29:00;;;;;;;3.65;1.60;;;24.70;99.70;;;;;;5070715;28;20064;-65
2022/07/23 06:31:26;;;;;;;4.97;1.42;;;24.80;99.10;;;;;;5083522;28;20483;-64
2022/07/23 06:33:51;;;;;;;3.53;1.60;;;24.60;98.80;;;;;;5072427;28;20121;-65
2022/07/23 06:36:17;;;;;;;2.28;1.05;;;24.80;98.60;;;;;;5074635;28;20044;-65
2022/07/23 06:38:43;;;;;;;3.72;1.33;;;25.10;98.30;;;;;;5074157;28;20132;-65
2022/07/23 06:41:09;;;;;;;5.00;2.05;;;24.80;98.00;;;;;;5057948;28;20068;-65
2022/07/23 06:43:35;;;;;;;4.60;1.50;;;24.70;98.10;;;;;;5074766;28;20094;-65
2022/07/23 06:46:00;;;;;;;2.17;1.20;;;24.80;98.20;;;;;;5074316;28;20040;-64
2022/07/23 06:48:26;;;;;;;4.22;1.38;;;25.10;98.10;;;;;;5087309;28;20040;-64
2022/07/23 06:50:52;;;;;;;4.18;1.40;;;25.50;97.90;;;;;;5074500;28;20128;-65
2022/07/23 06:53:18;;;;;;;3.20;1.33;;;25.10;97.70;;;;;;5075851;28;20029;-64
2022/07/23 06:55:43;;;;;;;4.97;1.75;;;24.80;97.70;;;;;;5055119;28;20029;-64
2022/07/23 06:58:09;;;;;;;5.47;1.42;;;24.50;97.80;;;;;;5056557;28;20123;-64
2022/07/23 07:00:36;;;;;;;3.63;1.33;;;24.40;97.90;;;;;;5073943;28;20459;-66
2022/07/23 07:03:01;;;;;;;2.78;1.25;;;24.50;97.80;;;;;;5058239;28;20089;-64
2022/07/23 07:05:27;;;;;;;3.67;1.30;;;24.60;97.50;;;;;;5087257;28;20044;-64
2022/07/23 07:07:56;;;;;;;3.30;1.60;;;24.10;97.60;;;;;;5056193;28;20052;-65
2022/07/23 07:10:22;;;;;;;3.08;1.40;;;24.10;97.70;;;;;;5074169;28;20085;-64
2022/07/23 07:12:48;;;;;;;4.43;1.25;;;23.80;98.30;;;;;;5075530;28;20029;-64
2022/07/23 07:15:14;;;;;;;3.60;1.10;;;23.60;98.70;;;;;;5073967;28;20083;-64
2022/07/23 07:17:42;;;;;;;3.15;1.60;;;23.20;99.20;;;;;;5061107;28;20072;-65
2022/07/23 07:20:08;;;;;;;4.18;1.70;;;22.90;99.60;;;;;;5064615;28;20051;-62
2022/07/23 07:22:34;;;;;;;2.60;1.30;;;22.70;99.90;;;;;;5084272;28;20052;-64
2022/07/23 07:25:00;;;;;;;5.07;1.60;;;22.60;99.90;;;;;;5084424;28;20051;-64
2022/07/23 07:27:25;;;;;;;2.92;1.60;;;22.50;99.90;;;;;;5064302;28;20048;-63
2022/07/23 07:29:51;;;;;;;3.55;1.48;;;22.10;99.90;;;;;;5084297;28;20163;-63
2022/07/23 07:32:16;;;;;;;4.22;1.50;;;21.80;99.90;;;;;;5082830;28;20051;-63
2022/07/23 07:34:42;;;;;;;3.88;1.45;;;21.70;99.90;;;;;;5064585;28;20479;-62
2022/07/23 07:37:11;;;;;;;3.13;1.70;;;21.50;99.90;;;;;;5048916;28;20489;-63
2022/07/23 07:39:36;;;;;;;2.63;1.50;;;21.40;99.90;;;;;;5082138;28;20044;-63
2022/07/23 07:42:02;;;;;;;3.42;1.60;;;21.30;99.90;;;;;;5083007;28;20051;-63
2022/07/23 07:44:28;;;;;;;4.18;1.58;;;21.20;99.90;;;;;;5083151;28;20044;-63
2022/07/23 07:46:53;;;;;;;2.47;1.30;;;21.40;99.90;;;;;;5082239;28;20028;-64
2022/07/23 07:49:19;;;;;;;4.35;1.63;;;21.40;99.90;;;;;;5081873;28;20033;-64
2022/07/23 07:51:45;;;;;;;5.00;1.40;;;21.40;99.90;;;;;;5066422;28;20036;-65
2022/07/23 07:54:12;;;;;;;2.40;1.08;;;21.30;99.90;;;;;;5081951;28;20036;-63
2022/07/23 07:56:37;;;;;;;4.30;1.42;;;21.10;99.90;;;;;;5082994;28;20032;-64
2022/07/23 07:59:03;;;;;;;2.75;1.30;;;21.00;99.90;;;;;;5080896;28;20043;-63
2022/07/23 08:01:29;;;;;;;3.30;1.20;;;21.00;99.90;;;;;;5079531;28;20051;-64
2022/07/23 08:03:55;;;;;;;1.60;1.00;;;20.90;99.90;;;;;;5085645;28;20115;-64
2022/07/23 08:06:20;;;;;;;3.97;1.30;;;20.50;99.90;;;;;;5072746;28;20036;-63
2022/07/23 08:08:46;;;;;;;1.80;1.00;;;20.40;99.90;;;;;;5072092;28;20484;-64
2022/07/23 08:11:11;;;;;;;2.90;1.13;;;20.50;99.90;;;;;;5057550;28;20465;-64
2022/07/23 08:13:37;;;;;;;2.40;1.08;;;20.70;99.90;;;;;;5081935;28;20032;-63
2022/07/23 08:16:03;;;;;;;2.65;1.10;;;21.00;99.90;;;;;;5081753;28;20028;-63
2022/07/23 08:18:29;;;;;;;1.45;0.90;;;21.40;99.90;;;;;;5081943;28;20048;-60
2022/07/23 08:20:54;;;;;;;3.03;1.10;;;21.40;99.90;;;;;;5081427;28;20039;-63
2022/07/23 08:23:20;;;;;;;1.58;1.00;;;21.10;99.90;;;;;;5083167;28;20063;-61
2022/07/23 08:25:46;;;;;;;2.88;1.10;;;20.80;99.90;;;;;;5081513;28;20097;-61
2022/07/23 08:28:15;;;;;;;0.70;0.70;;;20.50;99.90;;;;;;5081697;28;20070;-62
2022/07/23 08:30:43;;;;;;;3.05;1.02;;;20.60;99.90;;;;;;5081253;28;20032;-63
2022/07/23 08:33:15;;;;;;;3.63;1.27;;;21.00;99.90;;;;;;5083176;28;20428;-63
2022/07/23 08:35:45;;;;;;;1.75;1.15;;;21.20;99.90;;;;;;5081711;28;20449;-63
2022/07/23 08:38:13;;;;;;;1.20;0.80;;;21.10;99.90;;;;;;5080215;28;20035;-61
2022/07/23 08:40:44;;;;;;;1.20;0.70;;;21.10;99.90;;;;;;5082390;28;20089;-61
2022/07/23 08:43:13;;;;;;;1.95;0.85;;;21.00;99.90;;;;;;5080916;28;20086;-64
2022/07/23 08:45:42;;;;;;;3.08;1.02;;;20.80;99.90;;;;;;5081352;28;20031;-64
2022/07/23 08:48:11;;;;;;;1.30;0.70;;;20.80;99.90;;;;;;5082364;28;20093;-62
2022/07/23 08:50:37;;;;;;;0.95;0.90;;;20.70;99.90;;;;;;5078413;28;20039;-62
2022/07/23 08:53:06;;;;;;;0.80;0.80;;;20.70;99.90;;;;;;5078412;28;20039;-64
2022/07/23 08:55:32;;;;;;;1.17;0.88;;;20.60;99.90;;;;;;5081385;28;20127;-61
2022/07/23 08:57:57;;;;;;;5.30;1.13;;;20.90;99.90;;;;;;5080415;28;20498;-62
2022/07/23 09:00:23;;;;;;;3.53;0.82;;;21.20;99.90;;;;;;5082354;28;20059;-61
2022/07/23 09:02:50;;;;;;;1.50;0.85;;;21.20;99.90;;;;;;5083503;28;20105;-62
2022/07/23 09:05:17;;;;;;;2.35;0.95;;;21.00;99.90;;;;;;5081007;28;20048;-62
2022/07/23 09:08:06;;;;;;;1.75;0.88;;;20.80;99.90;;;;;;5079691;28;20097;-62
2022/07/23 09:10:49;;;;;;;1.23;0.70;;;20.80;99.90;;;;;;5083571;28;20050;-61
2022/07/23 09:13:33;;;;;;;1.67;0.80;;;20.80;99.90;;;;;;5082687;28;20032;-61
2022/07/23 09:16:00;;;;;;;;;;;20.90;99.90;;;;;;5082838;28;20221;-61
2022/07/23 09:18:43;;;;;;;2.30;1.05;;;21.10;99.90;;;;;;5080690;28;20371;-63
2022/07/23 09:21:30;;;;;;;2.45;1.10;;;21.40;99.90;;;;;;5081816;28;20036;-62
2022/07/23 09:24:05;;;;;;;0.60;0.60;;;21.60;99.90;;;;;;5082791;28;20105;-62
2022/07/23 09:26:36;;;;;;;1.63;0.88;;;21.60;99.90;;;;;;5079320;28;20542;-63
2022/07/23 09:29:05;;;;;;;1.77;0.98;;;21.70;99.90;;;;;;5081323;28;20068;-62
2022/07/23 09:31:52;;;;;;;3.05;1.00;;;21.70;99.60;;;;;;5081074;28;20050;-62
2022/07/23 09:34:22;;;;;;;1.80;0.88;;;21.60;99.10;;;;;;5082661;28;20059;-62
2022/07/23 09:36:50;;;;;;;1.77;1.00;;;21.60;99.50;;;;;;5059735;28;20369;-62
2022/07/23 09:39:29;;;;;;;2.60;1.00;;;21.70;99.40;;;;;;5039726;28;20135;-62
2022/07/23 09:41:56;;;;;;;2.72;0.90;;;22.10;98.70;;;;;;5079526;28;20032;-62
2022/07/23 09:44:21;;;;;;;2.28;1.02;;;22.10;98.90;;;;;;5080034;28;20118;-62
2022/07/23 09:46:50;;;;;;;3.00;1.10;;;21.90;98.60;;;;;;5081651;28;20060;-62
2022/07/23 09:49:21;;;;;;;3.00;1.13;;;21.90;98.90;;;;;;5079802;28;20646;-62
2022/07/23 09:51:51;;;;;;;1.58;1.00;;;21.60;98.90;;;;;;5057177;28;20055;-63
2022/07/23 09:54:24;;;;;;;2.40;1.02;;;21.50;99.30;;;;;;5080170;28;20072;-62
2022/07/23 09:56:51;;;;;;;3.17;1.27;;;21.40;99.40;;;;;;5079801;28;20036;-62
2022/07/23 09:59:18;;;;;;;1.67;1.08;;;21.60;99.50;;;;;;5082169;28;20086;-63
2022/07/23 10:01:45;;;;;;;3.10;1.17;;;21.80;99.50;;;;;;5083523;28;20047;-62
2022/07/23 10:04:12;;;;;;;1.50;0.90;;;21.90;99.20;;;;;;5079939;28;20112;-62
2022/07/23 10:06:39;;;;;;;1.17;1.02;;;21.70;99.00;;;;;;5079639;28;20040;-62
2022/07/23 10:09:07;;;;;;;1.70;1.00;;;21.60;99.10;;;;;;5080255;28;20047;-62
2022/07/23 10:11:33;;;;;;;1.65;1.25;;;21.70;99.30;;;;;;5085736;28;20048;-62
2022/07/23 10:14:04;;;;;;;1.75;1.20;;;21.70;99.20;;;;;;5083525;28;20512;-63
2022/07/23 10:16:30;;;;;;;2.42;1.20;;;21.70;99.10;;;;;;5074878;28;20032;-63
2022/07/23 10:18:56;;;;;;;1.42;1.08;;;21.80;99.10;;;;;;5073883;28;20434;-63
2022/07/23 10:21:35;;;;;;;2.15;1.27;;;21.90;99.10;;;;;;5074987;28;20734;-62
2022/07/23 10:24:10;;;;;;;1.40;1.30;;;22.10;99.00;;;;;;5076609;28;20049;-64
2022/07/23 10:27:00;;;;;;;2.28;1.30;;;22.10;99.10;;;;;;5075699;28;20036;-63
2022/07/23 10:29:50;;;;;;;2.42;1.10;;;22.10;98.50;;;;;;5079263;28;20051;-65
2022/07/23 10:32:37;;;;;;;1.30;1.10;;;22.20;99.00;;;;;;5084885;28;20170;-62
2022/07/23 10:35:23;;;;;;;2.45;1.40;;;22.00;99.20;;;;;;5061765;28;20049;-60
2022/07/23 10:37:55;;;;;;;1.85;1.23;;;21.90;99.70;;;;;;5082243;28;20051;-60
2022/07/23 10:40:23;;;;;;;1.58;1.23;;;22.10;99.20;;;;;;5083455;28;20039;-59
2022/07/23 10:42:57;;;;;;;1.40;1.17;;;22.10;99.20;;;;;;5063266;28;20469;-61
2022/07/23 10:45:34;;;;;;;2.60;1.35;;;22.30;99.00;;;;;;5077090;28;20032;-61
2022/07/23 10:48:21;;;;;;;3.22;1.58;;;22.40;98.50;;;;;;5075313;28;20116;-61
2022/07/23 10:51:06;;;;;;;1.40;1.30;;;22.50;98.30;;;;;;5077944;28;20040;-60
2022/07/23 10:53:50;;;;;;;2.90;1.45;;;22.30;98.70;;;;;;5082052;28;20028;-60
2022/07/23 10:56:17;;;;;;;19.85;18.27;;;22.30;98.90;;;;;;5085860;28;20134;-60
2022/07/23 10:58:48;;;;;;;2.83;1.80;;;22.20;99.00;;;;;;5082681;28;20044;-60
2022/07/23 11:01:36;;;;;;;1.67;1.40;;;22.30;98.80;;;;;;5083221;28;20044;-60
2022/07/23 11:04:04;;;;;;;4.80;1.70;;;22.60;98.90;;;;;;5083847;28;20036;-60
2022/07/23 11:06:48;;;;;;;3.30;1.55;;;22.80;98.80;;;;;;5082003;28;20062;-60
2022/07/23 11:09:30;;;;;;;;;;;23.00;98.90;;;;;;5081529;28;20074;-60
2022/07/23 11:12:14;;;;;;;3.58;1.58;;;23.10;98.70;;;;;;5083054;28;20404;-60
2022/07/23 11:15:05;;;;;;;2.13;1.40;;;23.20;98.10;;;;;;5083158;28;20043;-60
2022/07/23 11:17:34;;;;;;;2.78;1.50;;;23.20;98.10;;;;;;5082314;28;20043;-60
2022/07/23 11:20:08;;;;;;;3.70;1.67;;;23.20;98.30;;;;;;5082293;28;20043;-60
2022/07/23 11:22:51;;;;;;;3.25;1.50;;;23.40;98.30;;;;;;5086069;28;20752;-60
2022/07/23 11:25:27;;;;;;;2.83;1.70;;;23.40;98.30;;;;;;5084395;28;20041;-60
2022/07/23 11:27:53;;;;;;;2.42;1.40;;;23.30;98.00;;;;;;5084423;28;20151;-60
2022/07/23 11:30:28;;;;;;;4.68;1.75;;;23.00;98.20;;;;;;5082135;28;20050;-61
2022/07/23 11:33:14;;;;;;;1.67;1.45;;;22.90;98.60;;;;;;5085023;28;20043;-60
2022/07/23 11:35:45;;;;;;;4.82;1.63;;;22.70;98.70;;;;;;5082617;28;20419;-61
2022/07/23 11:38:17;;;;;;;3.05;1.58;;;22.70;98.90;;;;;;5081497;28;20042;-60
2022/07/23 11:40:45;;;;;;;3.22;2.00;;;22.80;98.90;;;;;;5081123;28;20113;-61
2022/07/23 11:43:12;;;;;;;2.05;1.55;;;22.90;98.70;;;;;;5087041;28;20043;-59
2022/07/23 11:45:43;;;;;;;3.40;1.55;;;23.00;98.50;;;;;;5082430;28;20029;-60
2022/07/23 11:48:15;;;;;;;3.58;1.80;;;23.10;98.60;;;;;;5082994;28;20058;-61
2022/07/23 11:50:41;;;;;;;2.55;1.40;;;23.20;98.50;;;;;;5078134;28;20372;-61
2022/07/23 11:53:07;;;;;;;2.55;1.40;;;23.20;98.60;;;;;;5077882;28;20032;-61
2022/07/23 11:55:33;;;;;;;2.20;1.50;;;23.20;98.40;;;;;;5083414;28;20044;-62
2022/07/23 11:57:59;;;;;;;3.28;1.58;;;23.40;98.40;;;;;;5047581;28;20040;-61
2022/07/23 12:00:28;;;;;;;1.90;1.40;;;23.50;98.20;;;;;;5064500;28;20033;-61
2022/07/23 12:02:58;;;;;;;3.45;1.80;;;23.50;98.10;;;;;;5049537;28;20071;-61
2022/07/23 12:05:33;;;;;;;3.83;1.58;;;23.60;98.10;;;;;;5064550;28;20822;-62
2022/07/23 12:08:00;;;;;;;3.63;1.83;;;23.60;98.00;;;;;;5078455;28;20123;-60
2022/07/23 12:10:28;;;;;;;2.20;1.55;;;23.60;98.30;;;;;;5082631;28;20033;-61
2022/07/23 12:12:58;;;;;;;2.67;1.60;;;23.70;98.30;;;;;;5083641;28;20071;-61
2022/07/23 12:15:33;;;;;;;2.47;1.50;;;23.70;98.10;;;;;;5062633;28;20055;-64
2022/07/23 12:18:01;;;;;;;2.63;1.60;;;23.50;98.20;;;;;;5082488;28;20036;-61
2022/07/23 12:20:33;;;;;;;2.97;1.52;;;23.30;98.20;;;;;;5078793;28;20447;-61
2022/07/23 12:23:02;;;;;;;3.45;1.60;;;23.50;98.40;;;;;;5081757;28;20045;-61
2022/07/23 12:25:33;;;;;;;3.67;1.67;;;23.70;98.40;;;;;;5080015;28;20222;-62
2022/07/23 12:28:11;;;;;;;2.38;1.73;;;23.80;98.20;;;;;;5081142;28;20032;-62
2022/07/23 12:30:41;;;;;;;1.45;1.23;;;23.80;98.10;;;;;;5081301;28;20036;-63
2022/07/23 12:33:09;;;;;;;3.58;1.60;;;23.80;98.30;;;;;;5064724;28;20047;-61
2022/07/23 12:35:44;;;;;;;3.67;1.58;;;23.60;98.60;;;;;;5082067;28;20036;-61
2022/07/23 12:38:12;;;;;;;2.88;1.90;;;23.60;98.40;;;;;;5081824;28;20033;-61
2022/07/23 12:40:46;;;;;;;2.03;1.48;;;23.40;98.80;;;;;;5081093;28;20437;-62
2022/07/23 12:43:23;;;;;;;2.05;1.67;;;23.30;98.80;;;;;;5080858;28;20516;-62
2022/07/23 12:45:55;;;;;;;5.22;1.60;;;23.30;98.70;;;;;;5080699;28;20032;-62
2022/07/23 12:48:39;;;;;;;2.50;1.30;;;23.30;98.80;;;;;;5059773;28;20047;-61
2022/07/23 12:51:24;;;;;;;2.85;1.50;;;23.40;99.10;;;;;;5078694;28;20028;-62
2022/07/23 12:53:55;;;;;;;4.13;1.50;;;23.40;99.20;;;;;;5082474;28;20392;-62